KE7JVX-3 Weather Reports


Display with metric or nautical units.
time (UTC)temp
F
wind
direction
speed
MPH
gust
MPH
rain 1hr
in
rain 24hr
in
rain mn
in
humidity
%
barometer
mb
20180815130605 57 49 4.0 9.0 0.00 0.01 0.00 51 1015.4
20180815125604 57 291 1.0 4.0 0.00 0.01 0.00 49 1015.4
20180815124601 57 207 2.0 4.0 0.00 0.01 0.00 48 1015.4
20180815123601 57 207 1.0 3.0 0.00 0.01 0.00 46 1015.4
20180815122602 57 0 0.0 4.0 0.00 0.01 0.00 48 1015.3
20180815121601 57 208 3.0 5.0 0.00 0.01 0.00 46 1015.3
20180815120601 59 203 3.0 7.0 0.00 0.01 0.00 41 1015.2
20180815115601 60 204 1.0 2.0 0.00 0.01 0.00 32 1015.1
20180815114611 60 0 0.0 3.0 0.00 0.01 0.00 32 1015.0
20180815113601 59 204 1.0 3.0 0.00 0.01 0.00 33 1015.0
20180815112604 59 204 1.0 4.0 0.00 0.01 0.00 35 1015.0
20180815111601 59 203 2.0 6.0 0.00 0.01 0.00 37 1014.9
20180815110602 60 143 2.0 6.0 0.00 0.01 0.00 32 1014.8
20180815105602 60 141 3.0 4.0 0.00 0.01 0.00 33 1014.8
20180815104601 60 141 1.0 4.0 0.00 0.01 0.00 32 1014.9
20180815103602 60 141 1.0 4.0 0.00 0.01 0.00 32 1015.1
20180815102604 60 141 2.0 3.0 0.00 0.01 0.00 31 1014.9
20180815101601 60 141 1.0 4.0 0.00 0.01 0.00 31 1014.8
20180815100602 60 141 2.0 5.0 0.00 0.01 0.00 33 1015.0
20180815095601 59 136 2.0 7.0 0.00 0.01 0.00 35 1015.1
20180815094601 59 111 3.0 8.0 0.00 0.01 0.00 42 1015.1
20180815093603 58 118 3.0 7.0 0.00 0.01 0.00 47 1015.2
20180815092601 58 215 1.0 4.0 0.00 0.01 0.00 50 1015.4
20180815091602 58 216 1.0 4.0 0.00 0.01 0.00 51 1015.3
20180815090602 58 216 3.0 5.0 0.00 0.01 0.00 53 1015.3
20180815085601 58 216 1.0 6.0 0.00 0.01 0.00 54 1015.3
20180815084601 57 215 3.0 10.0 0.00 0.01 0.00 56 1015.2
20180815083606 56 210 1.0 9.0 0.00 0.01 0.00 56 1015.3
20180815082601 56 224 4.0 8.0 0.00 0.01 0.00 53 1015.3
20180815081601 57 237 3.0 9.0 0.00 0.01 0.00 54 1015.4
20180815080602 57 202 4.0 7.0 0.00 0.01 0.00 51 1015.6
20180815075604 58 220 4.0 9.0 0.00 0.01 0.00 51 1015.6
20180815074601 58 224 3.0 9.0 0.00 0.01 0.00 51 1015.7
20180815073601 59 223 4.0 10.0 0.00 0.01 0.01 54 1015.8
20180815072601 59 224 6.0 12.0 0.00 0.01 0.01 56 1015.8
20180815071602 58 224 3.0 9.0 0.00 0.01 0.01 52 1015.8
20180815070601 59 221 5.0 9.0 0.00 0.01 0.01 53 1015.8
20180815065608 59 225 5.0 9.0 0.00 0.01 0.01 55 1015.7
20180815064603 59 210 5.0 9.0 0.00 0.01 0.01 53 1015.8
20180815063601 59 208 5.0 7.0 0.00 0.01 0.01 51 1015.8
20180815062602 59 199 3.0 7.0 0.00 0.01 0.01 51 1015.9
20180815061601 59 190 3.0 7.0 0.00 0.01 0.01 49 1015.9
20180815060602 59 185 3.0 6.0 0.00 0.01 0.01 46 1016.0
20180815055602 59 144 3.0 5.0 0.00 0.01 0.01 42 1015.9
20180815054602 60 142 2.0 6.0 0.00 0.01 0.01 37 1016.0
20180815053605 60 142 3.0 7.0 0.00 0.01 0.01 36 1015.9
20180815052602 60 130 2.0 4.0 0.00 0.01 0.01 35 1015.8
20180815051601 60 125 2.0 4.0 0.00 0.01 0.01 35 1016.0
20180815050602 60 124 1.0 4.0 0.00 0.01 0.01 36 1015.8
20180815045602 60 124 2.0 5.0 0.00 0.01 0.01 35 1015.6
20180815044602 60 109 1.0 7.0 0.00 0.01 0.01 35 1015.5
20180815043601 60 109 3.0 7.0 0.00 0.01 0.01 35 1015.3
20180815042601 60 109 4.0 7.0 0.00 0.01 0.01 34 1015.6
20180815041602 60 108 2.0 8.0 0.00 0.01 0.01 34 1015.7
20180815040603 60 107 2.0 4.0 0.00 0.01 0.01 35 1015.5
20180815035601 60 107 2.0 6.0 0.00 0.01 0.01 34 1015.4
20180815034601 60 107 4.0 9.0 0.00 0.01 0.01 34 1015.6
20180815033602 61 105 5.0 8.0 0.00 0.01 0.01 32 1015.7
20180815032601 62 112 5.0 14.0 0.00 0.01 0.01 30 1015.6
20180815031603 62 98 4.0 10.0 0.00 0.01 0.01 29 1015.5
20180815030602 62 92 3.0 7.0 0.00 0.01 0.01 28 1015.5
20180815025602 62 108 5.0 10.0 0.00 0.01 0.01 27 1015.2
20180815024601 63 100 3.0 12.0 0.01 0.01 0.01 26 1015.0
20180815023604 63 112 4.0 8.0 0.01 0.01 0.01 27 1014.7
20180815022601 62 108 4.0 9.0 0.01 0.01 0.01 27 1014.5
20180815021606 62 94 4.0 9.0 0.01 0.01 0.01 30 1014.6
20180815020601 61 80 3.0 9.0 0.01 0.01 0.01 33 1014.6
20180815015603 61 85 6.0 9.0 0.01 0.01 0.01 33 1014.3
20180815014602 59 62 6.0 11.0 0.00 0.00 0.00 39 1014.1
20180815013601 59 67 8.0 14.0 0.00 0.00 0.00 38 1014.0
20180815012605 59 52 7.0 15.0 0.00 0.00 0.00 39 1014.2
20180815011601 57 50 11.0 22.0 0.00 0.00 0.00 44 1013.9
20180815010601 60 47 10.0 19.0 0.00 0.00 0.00 40 1013.8
20180815005603 62 41 9.0 17.0 0.00 0.00 0.00 45 1014.2
20180815004601 65 17 3.0 10.0 0.00 0.00 0.00 53 1014.4
20180815003602 65 331 5.0 14.0 0.00 0.00 0.00 52 1014.4
20180815002602 66 299 8.0 15.0 0.00 0.00 0.00 52 1014.2
20180815001500 65 288 8.0 15.0 0.00 0.00 0.00 52 1014.0
20180815000500 66 298 7.0 12.0 0.00 0.00 0.00 50 1014.1
20180814235532 66 298 8.0 15.0 0.00 0.00 0.00 51 1014.1
20180814235500 66 298 8.0 15.0 0.00 0.00 0.00 51 1014.1
20180814234500 66 298 6.0 13.0 0.00 0.00 0.00 48 1014.2
20180814233500 66 285 8.0 15.0 0.00 0.00 0.00 50 1014.1
20180814232501 65 273 10.0 16.0 0.00 0.00 0.00 50 1013.9
20180814231500 65 264 11.0 22.0 0.00 0.00 0.00 52 1013.7
20180814230500 65 267 9.0 19.0 0.00 0.00 0.00 53 1013.7
20180814225500 65 264 12.0 21.0 0.00 0.00 0.00 51 1013.9
20180814224500 65 262 12.0 25.0 0.00 0.00 0.00 52 1014.0
20180814223502 65 269 11.0 24.0 0.00 0.00 0.00 53 1014.0
20180814222500 65 261 12.0 25.0 0.00 0.00 0.00 54 1014.0
20180814221500 66 271 11.0 19.0 0.00 0.00 0.00 51 1014.1
20180814220500 66 254 16.0 26.0 0.00 0.00 0.00 50 1014.3
20180814215501 66 268 8.0 20.0 0.00 0.00 0.00 52 1014.4
20180814214500 66 275 12.0 22.0 0.00 0.00 0.00 54 1014.5
20180814213500 66 276 8.0 18.0 0.00 0.00 0.00 53 1014.6
20180814212500 66 280 10.0 17.0 0.00 0.00 0.00 54 1014.7
20180814211500 66 252 6.0 19.0 0.00 0.00 0.00 57 1014.8
20180814210500 66 259 7.0 18.0 0.00 0.00 0.00 55 1014.9
20180814205500 66 251 8.0 18.0 0.00 0.00 0.00 54 1015.0
20180814204500 66 257 8.0 14.0 0.00 0.00 0.00 56 1015.1
20180814203502 66 264 5.0 17.0 0.00 0.00 0.00 58 1015.3
20180814202500 66 272 9.0 18.0 0.00 0.00 0.00 58 1015.2
20180814201501 67 292 7.0 16.0 0.00 0.00 0.00 54 1015.3
20180814200501 66 284 9.0 15.0 0.00 0.00 0.00 56 1015.4
20180814195501 66 287 9.0 15.0 0.00 0.00 0.00 58 1015.4
20180814194501 66 300 5.0 11.0 0.00 0.00 0.00 57 1015.5
20180814193501 65 293 7.0 13.0 0.00 0.00 0.00 58 1015.6
20180814192505 66 311 5.0 12.0 0.00 0.00 0.00 56 1015.6
20180814191500 66 323 4.0 10.0 0.00 0.00 0.00 55 1015.7
20180814190500 67 56 1.0 8.0 0.00 0.00 0.00 53 1015.7
20180814185501 66 74 3.0 9.0 0.00 0.00 0.00 47 1015.8
20180814184500 66 62 3.0 9.0 0.00 0.00 0.00 48 1015.9
20180814183500 66 81 2.0 8.0 0.00 0.00 0.00 47 1016.0
20180814182500 67 25 2.0 8.0 0.00 0.00 0.00 47 1016.0
20180814181500 66 33 1.0 6.0 0.00 0.00 0.00 46 1016.0
20180814180500 65 71 2.0 5.0 0.00 0.00 0.00 48 1016.0
20180814175500 65 19 2.0 7.0 0.00 0.00 0.00 51 1016.1
20180814174500 64 60 1.0 7.0 0.00 0.00 0.00 53 1016.0
20180814173501 63 65 3.0 9.0 0.00 0.00 0.00 48 1016.0
20180814172500 64 73 5.0 9.0 0.00 0.00 0.00 48 1016.1
20180814171500 63 77 3.0 9.0 0.00 0.00 0.00 48 1016.1
20180814170500 63 5 2.0 5.0 0.00 0.00 0.00 53 1016.0
20180814165500 62 0 0.0 6.0 0.00 0.00 0.00 61 1016.0
20180814164500 61 38 2.0 7.0 0.00 0.00 0.00 61 1016.0
20180814163500 60 34 2.0 8.0 0.00 0.00 0.00 64 1015.9
20180814162500 60 346 4.0 10.0 0.00 0.00 0.00 62 1015.8
20180814161505 60 21 4.0 10.0 0.00 0.00 0.00 63 1015.8
20180814160500 59 3 3.0 8.0 0.00 0.00 0.00 64 1015.7
20180814155502 59 4 5.0 10.0 0.00 0.00 0.00 64 1015.7
20180814154500 59 2 3.0 9.0 0.00 0.00 0.00 65 1015.6
20180814153500 59 59 1.0 5.0 0.00 0.00 0.00 65 1015.6
20180814152500 59 15 2.0 5.0 0.00 0.00 0.00 64 1015.7
20180814151500 60 4 2.0 7.0 0.00 0.00 0.00 64 1015.6
20180814150500 59 353 4.0 9.0 0.00 0.00 0.00 65 1015.4
20180814145500 58 320 3.0 11.0 0.00 0.00 0.00 68 1015.4
20180814144500 57 306 6.0 15.0 0.00 0.00 0.00 68 1015.3
20180814143501 57 300 10.0 16.0 0.00 0.00 0.00 68 1015.2
20180814142500 57 296 9.0 16.0 0.00 0.00 0.00 67 1015.2
20180814141501 57 304 10.0 16.0 0.00 0.00 0.00 67 1015.1
20180814140500 57 302 9.0 14.0 0.00 0.00 0.00 67 1015.1
20180814135500 56 301 9.0 15.0 0.00 0.00 0.00 69 1015.2
20180814134500 56 304 9.0 15.0 0.00 0.00 0.00 69 1015.1
20180814133500 56 301 10.0 14.0 0.00 0.00 0.00 68 1014.9
20180814132500 56 306 9.0 17.0 0.00 0.00 0.00 71 1015.0
20180814131500 56 302 10.0 15.0 0.00 0.00 0.00 70 1014.9